createdAt,value
2018-08-11T00:01:12.423Z,0.70
2018-08-11T00:03:40.656Z,0.50
2018-08-11T00:06:08.953Z,0.57
2018-08-11T00:08:37.240Z,0.80
2018-08-11T00:11:05.458Z,0.60
2018-08-11T00:13:33.806Z,0.90
2018-08-11T00:16:02.107Z,0.60
2018-08-11T00:18:30.859Z,0.90
2018-08-11T00:20:59.208Z,0.53
2018-08-11T00:23:27.459Z,0.50
2018-08-11T00:25:55.741Z,0.70
2018-08-11T00:28:24.063Z,0.67
2018-08-11T00:30:52.392Z,0.70
2018-08-11T00:33:20.593Z,0.50
2018-08-11T00:35:53.587Z,0.70
2018-08-11T00:38:21.810Z,0.40
2018-08-11T00:40:50.101Z,0.40
2018-08-11T00:46:26.317Z,0.60
2018-08-11T00:48:54.871Z,0.60
2018-08-11T00:51:23.160Z,0.33
2018-08-11T00:53:54.331Z,0.60
2018-08-11T00:56:22.577Z,0.60
2018-08-11T00:58:50.823Z,0.67
2018-08-11T01:01:19.173Z,0.60
2018-08-11T01:03:47.570Z,0.70
2018-08-11T01:06:15.868Z,0.70
2018-08-11T01:08:44.181Z,0.67
2018-08-11T01:11:12.440Z,0.60
2018-08-11T01:13:40.760Z,0.60
2018-08-11T01:16:09.027Z,0.50
2018-08-11T01:18:37.387Z,0.77
2018-08-11T01:21:05.712Z,0.40
2018-08-11T01:23:34.005Z,0.60
2018-08-11T01:26:02.329Z,0.50
2018-08-11T01:28:30.579Z,0.90
2018-08-11T01:30:58.815Z,0.63
2018-08-11T01:33:27.052Z,1.00
2018-08-11T01:35:57.765Z,0.60
2018-08-11T01:38:26.112Z,0.60
2018-08-11T01:40:54.368Z,0.80
2018-08-11T01:43:22.671Z,0.57
2018-08-11T01:45:50.975Z,0.50
2018-08-11T01:48:19.246Z,0.80
2018-08-11T01:50:47.571Z,0.87
2018-08-11T01:53:15.857Z,0.70
2018-08-11T01:55:44.115Z,0.50
2018-08-11T01:58:12.415Z,0.70
2018-08-11T02:00:40.676Z,0.70
2018-08-11T02:03:08.952Z,0.80
2018-08-11T02:05:37.230Z,0.63
2018-08-11T02:08:05.514Z,0.70
2018-08-11T02:10:33.806Z,0.93
2018-08-11T02:13:02.033Z,0.73
2018-08-11T02:15:30.317Z,0.70
2018-08-11T02:18:01.428Z,0.90
2018-08-11T02:20:29.681Z,1.00
2018-08-11T02:22:58.017Z,1.17
2018-08-11T02:25:26.245Z,0.73
2018-08-11T02:27:54.521Z,0.80
2018-08-11T02:30:22.751Z,0.80
2018-08-11T02:32:51.001Z,0.90
2018-08-11T02:35:19.304Z,0.80
2018-08-11T02:37:47.577Z,0.60
2018-08-11T02:40:16.519Z,0.53
2018-08-11T02:42:44.772Z,0.63
2018-08-11T02:45:15.100Z,0.80
2018-08-11T02:47:43.576Z,0.77
2018-08-11T02:50:12.556Z,0.87
2018-08-11T02:52:41.271Z,0.70
2018-08-11T02:55:09.865Z,0.60
2018-08-11T02:57:38.134Z,0.50
2018-08-11T03:00:08.114Z,0.50
2018-08-11T03:02:36.734Z,0.50
2018-08-11T03:05:05.236Z,0.33
2018-08-11T03:07:33.597Z,0.60
2018-08-11T03:10:07.848Z,0.43
2018-08-11T03:12:36.132Z,0.50
2018-08-11T03:15:05.629Z,0.40
2018-08-11T03:17:33.896Z,0.37
2018-08-11T03:20:05.848Z,0.40
2018-08-11T03:22:34.139Z,0.47
2018-08-11T03:25:02.506Z,0.40
2018-08-11T03:27:30.751Z,0.40
2018-08-11T03:29:59.048Z,0.40
2018-08-11T03:32:27.305Z,0.37
2018-08-11T03:34:55.601Z,0.50
2018-08-11T03:37:23.872Z,0.40
2018-08-11T03:39:52.398Z,0.40
2018-08-11T03:42:20.659Z,0.40
2018-08-11T03:44:48.899Z,0.40
2018-08-11T03:47:17.175Z,0.50
2018-08-11T03:49:45.466Z,0.50
2018-08-11T03:52:13.752Z,0.50
2018-08-11T03:54:42.024Z,0.50
2018-08-11T03:57:10.280Z,0.50
2018-08-11T03:59:39.240Z,0.50
2018-08-11T04:02:08.697Z,0.40
2018-08-11T04:04:37.120Z,0.40
2018-08-11T04:07:05.407Z,0.43
2018-08-11T04:09:33.694Z,0.57
2018-08-11T04:12:01.935Z,0.40
2018-08-11T04:14:30.196Z,0.40
2018-08-11T04:16:58.463Z,0.40
2018-08-11T04:19:26.768Z,0.37
2018-08-11T04:21:55.009Z,0.40
2018-08-11T04:24:23.296Z,0.40
2018-08-11T04:26:51.555Z,0.60
2018-08-11T04:29:20.541Z,0.50
2018-08-11T04:31:48.851Z,0.40
2018-08-11T04:34:17.114Z,0.57
2018-08-11T04:36:45.397Z,0.50
2018-08-11T04:39:13.681Z,0.40
2018-08-11T04:41:41.982Z,0.47
2018-08-11T04:44:14.272Z,0.60
2018-08-11T04:46:42.514Z,0.60
2018-08-11T04:49:10.751Z,0.60
2018-08-11T04:51:39.032Z,0.70
2018-08-11T04:54:07.321Z,0.70
2018-08-11T04:56:35.572Z,0.70
2018-08-11T04:59:03.871Z,1.00
2018-08-11T05:01:32.140Z,0.90
2018-08-11T05:04:00.396Z,1.00
2018-08-11T05:06:28.715Z,0.77
2018-08-11T05:08:56.968Z,1.00
2018-08-11T05:11:25.192Z,1.33
2018-08-11T05:13:53.443Z,1.13
2018-08-11T05:16:21.740Z,1.17
2018-08-11T05:18:49.979Z,1.33
2018-08-11T05:21:18.252Z,0.90
2018-08-11T05:23:46.531Z,1.10
2018-08-11T05:26:18.001Z,0.80
2018-08-11T05:28:46.253Z,1.10
2018-08-11T05:31:14.487Z,0.97
2018-08-11T05:33:42.728Z,1.10
2018-08-11T05:36:10.989Z,1.50
2018-08-11T05:38:39.227Z,1.10
2018-08-11T05:41:07.496Z,1.17
2018-08-11T05:43:35.791Z,1.00
2018-08-11T05:46:04.054Z,0.90
2018-08-11T05:48:32.308Z,0.90
2018-08-11T05:51:00.626Z,1.00
2018-08-11T05:53:28.945Z,1.10
2018-08-11T05:55:57.188Z,1.00
2018-08-11T05:58:25.486Z,1.00
2018-08-11T06:00:54.151Z,0.97
2018-08-11T06:03:22.442Z,1.10
2018-08-11T06:05:50.668Z,1.10
2018-08-11T06:08:21.563Z,1.27
2018-08-11T06:10:49.806Z,1.20
2018-08-11T06:13:18.071Z,1.40
2018-08-11T06:15:46.369Z,1.03
2018-08-11T06:18:14.643Z,1.37
2018-08-11T06:20:42.923Z,1.00
2018-08-11T06:23:11.199Z,1.30
2018-08-11T06:25:39.489Z,1.00
2018-08-11T06:28:07.711Z,1.07
2018-08-11T06:30:36.000Z,1.30
2018-08-11T06:33:04.624Z,1.30
2018-08-11T06:35:33.059Z,0.80
2018-08-11T06:38:01.368Z,0.90
2018-08-11T06:40:29.641Z,0.90
2018-08-11T06:42:57.942Z,1.20
2018-08-11T06:45:26.217Z,0.80
2018-08-11T06:47:54.491Z,0.80
2018-08-11T06:50:25.907Z,0.83
2018-08-11T06:52:54.205Z,0.90
2018-08-11T06:55:22.419Z,0.70
2018-08-11T06:57:50.676Z,0.77
2018-08-11T07:00:18.975Z,0.97
2018-08-11T07:02:47.232Z,0.73
2018-08-11T07:05:15.459Z,1.10
2018-08-11T07:07:43.930Z,0.77
2018-08-11T07:10:12.212Z,0.90
2018-08-11T07:12:40.440Z,0.73
2018-08-11T07:15:09.408Z,0.88
2018-08-11T07:17:37.680Z,0.90
2018-08-11T07:20:07.909Z,1.00
2018-08-11T07:22:36.168Z,0.70
2018-08-11T07:25:04.720Z,1.07
2018-08-11T07:27:32.983Z,0.80
2018-08-11T07:30:01.230Z,0.60
2018-08-11T07:32:29.996Z,0.90
2018-08-11T07:34:58.281Z,0.80
2018-08-11T07:37:26.569Z,0.70
2018-08-11T07:39:54.803Z,0.70
2018-08-11T07:42:23.084Z,0.80
2018-08-11T07:44:51.383Z,0.60
2018-08-11T07:47:19.703Z,0.60
2018-08-11T07:49:47.982Z,0.70
2018-08-11T07:52:16.228Z,0.93
2018-08-11T07:54:44.464Z,0.30
2018-08-11T07:57:12.750Z,0.60
2018-08-11T07:59:41.290Z,0.50
2018-08-11T08:02:09.556Z,0.57
2018-08-11T08:04:37.816Z,0.50
2018-08-11T08:07:06.124Z,0.70
2018-08-11T08:09:34.399Z,0.40
2018-08-11T08:12:02.688Z,0.73
2018-08-11T08:14:34.019Z,0.40
2018-08-11T08:17:03.231Z,0.50
2018-08-11T08:19:31.495Z,0.73
2018-08-11T08:21:59.816Z,0.53
2018-08-11T08:24:30.186Z,0.90
2018-08-11T08:26:59.974Z,0.83
2018-08-11T08:29:29.901Z,0.50
2018-08-11T08:31:58.175Z,0.57
2018-08-11T08:34:26.467Z,0.50
2018-08-11T08:36:54.834Z,0.67
2018-08-11T08:39:23.083Z,0.60
2018-08-11T08:41:51.403Z,0.77
2018-08-11T08:44:19.649Z,0.60
2018-08-11T08:46:47.941Z,0.60
2018-08-11T08:52:07.515Z,0.40
2018-08-11T08:54:36.192Z,0.50
2018-08-11T08:57:04.451Z,0.40
2018-08-11T08:59:33.648Z,0.40
2018-08-11T09:02:01.884Z,0.60
2018-08-11T09:04:30.160Z,0.43
2018-08-11T09:06:58.452Z,0.43
2018-08-11T09:09:26.801Z,0.50
2018-08-11T09:11:55.099Z,0.50
2018-08-11T09:14:23.295Z,0.67
2018-08-11T09:16:51.614Z,0.63
2018-08-11T09:19:19.917Z,0.43
2018-08-11T09:21:48.164Z,0.63
2018-08-11T09:24:16.424Z,0.57
2018-08-11T09:26:44.724Z,0.50
2018-08-11T09:29:13.227Z,0.50
2018-08-11T09:31:41.552Z,0.50
2018-08-11T09:34:09.748Z,0.50
2018-08-11T09:36:41.998Z,0.60
2018-08-11T09:39:11.651Z,0.57
2018-08-11T09:41:39.912Z,0.80
2018-08-11T09:44:08.854Z,0.40
2018-08-11T09:46:37.202Z,0.43
2018-08-11T09:49:05.514Z,0.90
2018-08-11T09:51:33.841Z,0.43
2018-08-11T09:54:02.070Z,0.50
2018-08-11T09:56:30.308Z,0.60
2018-08-11T09:58:58.538Z,0.40
2018-08-11T10:01:32.110Z,0.60
2018-08-11T10:04:00.436Z,0.53
2018-08-11T10:06:28.676Z,0.50
2018-08-11T10:08:56.948Z,0.50
2018-08-11T10:11:25.175Z,0.60
2018-08-11T10:13:53.473Z,0.47
2018-08-11T10:16:21.802Z,0.50
2018-08-11T10:18:50.092Z,0.50
2018-08-11T10:21:18.311Z,0.60
2018-08-11T10:23:46.595Z,0.50
2018-08-11T10:26:14.860Z,0.50
2018-08-11T10:28:46.612Z,0.50
2018-08-11T10:31:14.888Z,0.47
2018-08-11T10:33:43.172Z,0.50
2018-08-11T10:36:11.399Z,0.53
2018-08-11T10:38:39.660Z,0.50
2018-08-11T10:41:07.984Z,0.40
2018-08-11T10:43:36.276Z,0.37
2018-08-11T10:46:04.515Z,0.40
2018-08-11T10:48:32.782Z,0.30
2018-08-11T10:51:01.103Z,0.40
2018-08-11T10:53:29.418Z,0.37
2018-08-11T10:55:57.792Z,0.37
2018-08-11T10:58:26.049Z,0.50
2018-08-11T11:00:54.298Z,0.40
2018-08-11T11:03:22.519Z,0.40
2018-08-11T11:05:50.820Z,0.67
2018-08-11T11:08:19.107Z,0.60
2018-08-11T11:10:50.832Z,0.50
2018-08-11T11:13:19.086Z,0.73
2018-08-11T11:15:47.359Z,0.57
2018-08-11T11:18:15.567Z,0.80
2018-08-11T11:20:43.862Z,0.50
2018-08-11T11:23:12.084Z,0.73
2018-08-11T11:25:40.497Z,0.40
2018-08-11T11:28:08.759Z,0.30
2018-08-11T11:30:37.048Z,0.70
2018-08-11T11:33:05.434Z,0.50
2018-08-11T11:35:33.744Z,0.50
2018-08-11T11:38:02.031Z,0.40
2018-08-11T11:40:30.299Z,0.57
2018-08-11T11:42:58.573Z,0.50
2018-08-11T11:45:26.928Z,0.60
2018-08-11T11:47:55.787Z,0.30
2018-08-11T11:50:24.060Z,0.50
2018-08-11T11:52:54.456Z,0.40
2018-08-11T11:55:23.083Z,0.30
2018-08-11T11:57:51.345Z,0.33
2018-08-11T12:00:19.603Z,0.50
2018-08-11T12:02:47.936Z,0.50
2018-08-11T12:05:16.205Z,0.40
2018-08-11T12:07:44.439Z,0.40
2018-08-11T12:10:12.702Z,0.40
2018-08-11T12:12:40.940Z,0.40
2018-08-11T12:15:09.563Z,0.50
2018-08-11T12:17:37.807Z,0.40
2018-08-11T12:20:06.116Z,0.63
2018-08-11T12:22:34.426Z,0.47
2018-08-11T12:25:02.715Z,0.50
2018-08-11T12:27:31.003Z,0.40
2018-08-11T12:29:59.248Z,0.53
2018-08-11T12:32:27.483Z,0.60
2018-08-11T12:34:57.972Z,0.60
2018-08-11T12:37:26.285Z,0.60
2018-08-11T12:39:54.479Z,0.60
2018-08-11T12:42:22.755Z,0.50
2018-08-11T12:44:51.043Z,0.67
2018-08-11T12:47:19.281Z,0.70
2018-08-11T12:49:47.551Z,0.80
2018-08-11T12:52:15.803Z,0.50
2018-08-11T12:54:44.023Z,0.50
2018-08-11T12:57:12.244Z,0.80
2018-08-11T12:59:41.297Z,0.40
2018-08-11T13:02:09.630Z,0.40
2018-08-11T13:04:37.864Z,0.40
2018-08-11T13:07:06.461Z,0.60
2018-08-11T13:09:34.619Z,0.40
2018-08-11T13:12:02.864Z,0.43
2018-08-11T13:14:31.160Z,0.50
2018-08-11T13:17:01.829Z,0.40
2018-08-11T13:19:30.607Z,0.30
2018-08-11T13:21:58.845Z,0.50
2018-08-11T13:24:27.080Z,0.40
2018-08-11T13:26:55.321Z,0.40
2018-08-11T13:29:24.988Z,0.60
2018-08-11T13:31:53.276Z,0.50
2018-08-11T13:34:21.558Z,0.80
2018-08-11T13:36:49.854Z,0.50
2018-08-11T13:39:18.146Z,0.60
2018-08-11T13:41:47.859Z,0.40
2018-08-11T13:44:17.265Z,0.40
2018-08-11T13:46:45.576Z,0.63
2018-08-11T13:49:13.849Z,0.43
2018-08-11T13:51:42.112Z,0.50
2018-08-11T13:54:10.361Z,0.63
2018-08-11T13:56:39.172Z,0.40
2018-08-11T13:59:10.202Z,0.53
2018-08-11T14:01:38.456Z,0.50
2018-08-11T14:04:06.704Z,0.50
2018-08-11T14:06:34.977Z,0.50
2018-08-11T14:09:03.632Z,0.60
2018-08-11T14:11:31.851Z,0.50
2018-08-11T14:14:00.072Z,0.40
2018-08-11T14:16:28.392Z,0.50
2018-08-11T14:18:56.655Z,0.50
2018-08-11T14:21:24.958Z,0.50
2018-08-11T14:23:53.243Z,0.30
2018-08-11T14:26:21.552Z,0.50
2018-08-11T14:28:49.826Z,0.60
2018-08-11T14:31:18.099Z,0.40
2018-08-11T14:33:46.380Z,0.50
2018-08-11T14:36:14.654Z,0.93
2018-08-11T14:38:42.976Z,0.47
2018-08-11T14:41:15.784Z,0.50
2018-08-11T14:43:44.041Z,0.67
2018-08-11T14:46:12.312Z,0.50
2018-08-11T14:48:40.564Z,0.40
2018-08-11T14:51:08.861Z,0.60
2018-08-11T14:53:37.104Z,0.60
2018-08-11T14:56:05.337Z,0.50
2018-08-11T14:58:33.740Z,0.40
2018-08-11T15:01:02.031Z,0.50
2018-08-11T15:03:30.447Z,0.50
2018-08-11T15:05:58.677Z,0.50
2018-08-11T15:08:26.892Z,0.40
2018-08-11T15:10:55.205Z,0.43
2018-08-11T15:13:23.487Z,0.50
2018-08-11T15:15:51.836Z,0.60
2018-08-11T15:18:20.096Z,0.50
2018-08-11T15:20:48.447Z,0.40
2018-08-11T15:23:17.472Z,0.50
2018-08-11T15:25:45.703Z,0.60
2018-08-11T15:28:13.948Z,0.63
2018-08-11T15:30:42.287Z,0.50
2018-08-11T15:33:10.542Z,0.40
2018-08-11T15:35:39.635Z,0.47
2018-08-11T15:38:07.897Z,0.50
2018-08-11T15:40:36.158Z,0.50
2018-08-11T15:43:04.408Z,0.47
2018-08-11T15:45:32.691Z,0.30
2018-08-11T15:48:00.922Z,0.67
2018-08-11T15:50:29.160Z,0.30
2018-08-11T15:52:57.406Z,0.40
2018-08-11T15:55:25.835Z,0.30
2018-08-11T15:57:54.075Z,0.60
2018-08-11T16:00:22.288Z,0.40
2018-08-11T16:02:50.512Z,0.67
2018-08-11T16:05:20.493Z,0.40
2018-08-11T16:07:48.809Z,0.50
2018-08-11T16:10:17.051Z,0.53
2018-08-11T16:12:45.332Z,0.40
2018-08-11T16:15:13.592Z,0.40
2018-08-11T16:17:41.878Z,0.50
2018-08-11T16:20:10.095Z,0.50
2018-08-11T16:22:38.376Z,0.40
2018-08-11T16:25:06.647Z,0.50
2018-08-11T16:27:34.933Z,0.50
2018-08-11T16:30:03.227Z,0.43
2018-08-11T16:32:31.454Z,0.60
2018-08-11T16:34:59.672Z,0.40
2018-08-11T16:37:27.957Z,0.40
2018-08-11T16:39:56.219Z,0.47
2018-08-11T16:42:24.499Z,0.50
2018-08-11T16:44:52.715Z,0.57
2018-08-11T16:47:24.955Z,0.40
2018-08-11T16:49:53.368Z,0.50
2018-08-11T16:52:21.637Z,0.60
2018-08-11T16:54:49.897Z,0.63
2018-08-11T16:57:18.201Z,1.00
2018-08-11T16:59:47.100Z,0.60
2018-08-11T17:02:15.371Z,0.30
2018-08-11T17:04:43.624Z,0.30
2018-08-11T17:07:11.893Z,0.43
2018-08-11T17:09:40.145Z,0.50
2018-08-11T17:12:08.593Z,0.50
2018-08-11T17:14:36.899Z,0.30
2018-08-11T17:17:05.285Z,0.50
2018-08-11T17:19:33.519Z,0.50
2018-08-11T17:22:01.823Z,0.40
2018-08-11T17:24:30.040Z,0.60
2018-08-11T17:26:58.314Z,0.60
2018-08-11T17:29:30.010Z,0.47
2018-08-11T17:31:58.321Z,0.50
2018-08-11T17:34:26.558Z,0.50
2018-08-11T17:36:54.817Z,0.30
2018-08-11T17:39:23.066Z,0.50
2018-08-11T17:41:51.420Z,0.40
2018-08-11T17:44:19.704Z,0.63
2018-08-11T17:46:47.958Z,0.60
2018-08-11T17:49:16.236Z,0.40
2018-08-11T17:51:44.512Z,0.47
2018-08-11T17:54:12.752Z,0.53
2018-08-11T17:56:41.080Z,0.40
2018-08-11T17:59:09.341Z,0.50
2018-08-11T18:01:37.616Z,0.70
2018-08-11T18:04:05.889Z,0.50
2018-08-11T18:06:34.142Z,0.60
2018-08-11T18:09:02.380Z,0.50
2018-08-11T18:11:34.466Z,0.50
2018-08-11T18:14:02.796Z,0.40
2018-08-11T18:16:31.041Z,0.40
2018-08-11T18:18:59.409Z,0.40
2018-08-11T18:21:27.711Z,0.40
2018-08-11T18:23:55.955Z,0.40
2018-08-11T18:26:24.243Z,0.30
2018-08-11T18:28:52.491Z,0.60
2018-08-11T18:31:21.010Z,0.40
2018-08-11T18:33:49.475Z,0.50
2018-08-11T18:36:17.754Z,0.40
2018-08-11T18:38:46.020Z,0.53
2018-08-11T18:41:14.309Z,0.50
2018-08-11T18:43:42.622Z,0.57
2018-08-11T18:46:10.913Z,0.60
2018-08-11T18:48:39.279Z,0.67
2018-08-11T18:51:07.649Z,0.73
2018-08-11T18:53:37.793Z,0.60
2018-08-11T18:56:06.088Z,0.60
2018-08-11T18:58:34.401Z,0.57
2018-08-11T19:01:02.721Z,0.60
2018-08-11T19:03:31.357Z,0.50
2018-08-11T19:05:59.668Z,0.40
2018-08-11T19:08:27.893Z,0.50
2018-08-11T19:10:56.123Z,0.50
2018-08-11T19:13:24.406Z,0.43
2018-08-11T19:15:55.611Z,0.57
2018-08-11T19:18:23.913Z,0.40
2018-08-11T19:20:52.167Z,0.47
2018-08-11T19:23:20.447Z,0.67
2018-08-11T19:25:49.339Z,0.60
2018-08-11T19:28:17.635Z,0.50
2018-08-11T19:30:45.922Z,0.60
2018-08-11T19:33:14.240Z,0.77
2018-08-11T19:35:42.533Z,0.70
2018-08-11T19:38:10.804Z,0.60
2018-08-11T19:40:39.127Z,0.70
2018-08-11T19:43:14.137Z,0.60
2018-08-11T19:45:42.400Z,0.60
2018-08-11T19:48:10.756Z,0.50
2018-08-11T19:50:38.995Z,0.60
2018-08-11T19:53:07.289Z,0.60
2018-08-11T19:55:35.520Z,0.60
2018-08-11T19:58:03.844Z,0.70
2018-08-11T20:00:32.111Z,0.63
2018-08-11T20:03:01.613Z,0.57
2018-08-11T20:05:29.904Z,0.70
2018-08-11T20:07:58.181Z,0.40
2018-08-11T20:10:26.472Z,0.53
2018-08-11T20:12:57.675Z,0.57
2018-08-11T20:15:25.952Z,0.70
2018-08-11T20:17:54.170Z,0.60
2018-08-11T20:20:22.595Z,0.60
2018-08-11T20:22:51.315Z,0.60
2018-08-11T20:25:19.609Z,0.70
2018-08-11T20:27:47.820Z,0.60
2018-08-11T20:30:16.092Z,0.70
2018-08-11T20:32:44.866Z,0.80
2018-08-11T20:35:13.181Z,0.40
2018-08-11T20:37:41.707Z,0.60
2018-08-11T20:40:09.962Z,0.87
2018-08-11T20:42:38.287Z,0.40
2018-08-11T20:45:07.900Z,0.70
2018-08-11T20:47:36.163Z,0.50
2018-08-11T20:50:05.177Z,0.70
2018-08-11T20:52:33.457Z,0.40
2018-08-11T20:55:01.815Z,0.70
2018-08-11T20:57:30.069Z,0.80
2018-08-11T20:59:58.576Z,0.60
2018-08-11T21:02:26.813Z,0.60
2018-08-11T21:04:55.157Z,0.50
2018-08-11T21:07:23.411Z,0.70
2018-08-11T21:09:51.734Z,0.50
2018-08-11T21:12:20.033Z,0.73
2018-08-11T21:14:50.104Z,0.87
2018-08-11T21:17:18.323Z,0.67
2018-08-11T21:19:46.587Z,0.87
2018-08-11T21:22:14.902Z,0.80
2018-08-11T21:24:43.193Z,0.70
2018-08-11T21:27:11.419Z,0.60
2018-08-11T21:29:40.003Z,0.70
2018-08-11T21:32:08.275Z,0.60
2018-08-11T21:34:36.589Z,0.60
2018-08-11T21:37:04.944Z,0.70
2018-08-11T21:39:33.145Z,0.60
2018-08-11T21:42:01.391Z,0.50
2018-08-11T21:44:29.663Z,0.60
2018-08-11T21:46:57.929Z,0.80
2018-08-11T21:49:26.197Z,0.90
2018-08-11T21:51:54.485Z,0.60
2018-08-11T21:54:22.801Z,0.70
2018-08-11T21:56:53.360Z,0.60
2018-08-11T21:59:22.695Z,0.70
2018-08-11T22:01:51.088Z,0.67
2018-08-11T22:04:19.365Z,0.63
2018-08-11T22:06:51.564Z,0.60
2018-08-11T22:09:19.821Z,0.70
2018-08-11T22:11:48.120Z,0.80
2018-08-11T22:14:16.373Z,0.67
2018-08-11T22:16:44.639Z,0.60
2018-08-11T22:19:12.940Z,0.60
2018-08-11T22:21:41.283Z,0.73
2018-08-11T22:24:09.519Z,0.63
2018-08-11T22:26:37.792Z,0.83
2018-08-11T22:29:06.920Z,0.57
2018-08-11T22:31:35.192Z,0.77
2018-08-11T22:34:03.458Z,0.80
2018-08-11T22:36:31.724Z,0.62
2018-08-11T22:38:59.947Z,0.80
2018-08-11T22:41:28.200Z,0.53
2018-08-11T22:43:56.463Z,0.70
2018-08-11T22:46:24.809Z,0.80
2018-08-11T22:48:53.888Z,0.73
2018-08-11T22:51:22.131Z,0.80
2018-08-11T22:53:50.494Z,0.80
2018-08-11T22:56:18.946Z,0.80
2018-08-11T22:58:47.194Z,0.73
2018-08-11T23:01:15.432Z,0.70
2018-08-11T23:03:43.660Z,0.60
2018-08-11T23:06:11.861Z,0.70
2018-08-11T23:08:51.461Z,0.80
2018-08-11T23:11:19.732Z,1.00
2018-08-11T23:13:48.029Z,0.60
2018-08-11T23:16:16.300Z,0.70
2018-08-11T23:18:44.602Z,0.80
2018-08-11T23:21:12.930Z,0.60
2018-08-11T23:23:41.212Z,0.60
2018-08-11T23:26:09.468Z,0.70
2018-08-11T23:28:37.747Z,0.63
2018-08-11T23:31:06.073Z,0.70
2018-08-11T23:33:34.304Z,0.70
2018-08-11T23:36:02.645Z,0.83
2018-08-11T23:38:30.914Z,0.83
2018-08-11T23:40:59.208Z,0.80
2018-08-11T23:43:27.496Z,0.73
2018-08-11T23:45:55.782Z,0.70
2018-08-11T23:48:24.038Z,0.70
2018-08-11T23:50:53.462Z,0.80
2018-08-11T23:53:21.811Z,0.70
2018-08-11T23:55:50.081Z,0.70
2018-08-11T23:58:18.390Z,0.70
